Time;durP1;ratioP1;P1;durP2;ratioP2;P2;SDS_P1;SDS_P2;PMS_P1;PMS_P2;Temp;Humidity;BMP_temperature;BMP_pressure;BME280_temperature;BME280_humidity;BME280_pressure;Samples;Min_cycle;Max_cycle;Signal;HPM_P1;HPM_P2
2023/09/23 00:02:14;;;;;;;4.88;4.05;;;;;;;;;;5020383;28;20451;-39
2023/09/23 00:04:39;;;;;;;5.83;3.60;;;;;;;;;;5016991;28;20104;-39
2023/09/23 00:07:04;;;;;;;6.32;3.60;;;;;;;;;;5018841;28;20099;-38
2023/09/23 00:09:30;;;;;;;3.20;2.10;;;;;;;;;;5019339;28;20033;-39
2023/09/23 00:11:55;;;;;;;5.57;3.30;;;;;;;;;;5025709;28;20272;-39
2023/09/23 00:14:20;;;;;;;7.25;3.83;;;;;;;;;;5024375;28;20026;-39
2023/09/23 00:16:47;;;;;;;6.80;4.03;;;;;;;;;;5019303;28;20029;-39
2023/09/23 00:19:12;;;;;;;7.85;3.90;;;;;;;;;;5014010;28;20291;-39
2023/09/23 00:21:37;;;;;;;6.95;4.43;;;;;;;;;;5020239;28;20021;-39
2023/09/23 00:24:05;;;;;;;9.57;4.07;;;;;;;;;;5025388;28;20029;-39
2023/09/23 00:26:32;;;;;;;5.50;3.80;;;;;;;;;;5023492;28;20346;-39
2023/09/23 00:28:57;;;;;;;12.85;4.78;;;;;;;;;;5023592;28;20487;-39
2023/09/23 00:31:24;;;;;;;6.95;4.28;;;;;;;;;;5020875;28;20042;-38
2023/09/23 00:33:49;;;;;;;5.80;4.18;;;;;;;;;;5025140;28;20391;-39
2023/09/23 00:36:14;;;;;;;8.02;4.47;;;;;;;;;;5019969;28;20583;-39
2023/09/23 00:38:40;;;;;;;3.07;1.90;;;;;;;;;;5025116;28;20061;-39
2023/09/23 00:41:06;;;;;;;5.20;3.80;;;;;;;;;;5025326;28;20376;-39
2023/09/23 00:43:34;;;;;;;8.55;4.25;;;;;;;;;;5022437;28;20037;-39
2023/09/23 00:46:00;;;;;;;5.72;4.00;;;;;;;;;;5024734;28;20026;-38
2023/09/23 00:48:25;;;;;;;7.95;3.53;;;;;;;;;;5026893;28;20040;-38
2023/09/23 00:50:52;;;;;;;6.32;3.83;;;;;;;;;;5028699;28;20029;-39
2023/09/23 00:53:17;;;;;;;5.50;3.40;;;;;;;;;;5016816;28;20464;-39
2023/09/23 00:55:51;;;;;;;7.57;3.75;;;;;;;;;;5016785;28;20025;-39
2023/09/23 00:58:20;;;;;;;5.55;3.63;;;;;;;;;;5020890;28;20032;-39
2023/09/23 01:00:48;;;;;;;5.72;3.28;;;;;;;;;;5026246;28;20018;-39
2023/09/23 01:03:13;;;;;;;7.57;4.18;;;;;;;;;;5022826;28;20083;-39
2023/09/23 01:05:39;;;;;;;5.97;3.63;;;;;;;;;;5025236;28;20577;-39
2023/09/23 01:08:06;;;;;;;6.45;3.50;;;;;;;;;;5025379;28;20484;-39
2023/09/23 01:10:31;;;;;;;8.98;4.40;;;;;;;;;;5029383;28;20045;-39
2023/09/23 01:12:57;;;;;;;6.22;3.95;;;;;;;;;;5012730;28;20033;-39
2023/09/23 01:15:28;;;;;;;6.72;4.28;;;;;;;;;;5021090;28;20568;-39
2023/09/23 01:17:54;;;;;;;10.10;3.80;;;;;;;;;;5018935;28;20061;-39
2023/09/23 01:20:20;;;;;;;5.63;3.80;;;;;;;;;;5023572;28;20508;-39
2023/09/23 01:22:48;;;;;;;7.97;3.88;;;;;;;;;;5018098;28;20079;-39
2023/09/23 01:25:14;;;;;;;6.57;3.83;;;;;;;;;;5021253;28;20026;-39
2023/09/23 01:27:39;;;;;;;6.03;4.15;;;;;;;;;;5017261;28;20044;-39
2023/09/23 01:30:05;;;;;;;10.05;3.50;;;;;;;;;;5024450;28;20037;-39
2023/09/23 01:32:46;;;;;;;5.63;3.70;;;;;;;;;;5024715;28;20075;-39
2023/09/23 01:35:12;;;;;;;8.00;3.50;;;;;;;;;;5019240;28;20456;-39
2023/09/23 01:37:38;;;;;;;7.10;4.07;;;;;;;;;;5023552;28;20468;-38
2023/09/23 01:40:05;;;;;;;6.55;3.63;;;;;;;;;;5019598;28;20018;-39
2023/09/23 01:42:32;;;;;;;4.60;3.60;;;;;;;;;;5024291;28;20025;-39
2023/09/23 01:44:58;;;;;;;8.95;3.65;;;;;;;;;;5023033;28;20488;-39
2023/09/23 01:47:23;;;;;;;7.13;3.60;;;;;;;;;;5020420;28;20025;-39
2023/09/23 01:49:48;;;;;;;5.93;3.65;;;;;;;;;;5019496;28;20104;-39
2023/09/23 01:52:16;;;;;;;10.15;3.65;;;;;;;;;;5022908;28;20101;-39
2023/09/23 01:54:44;;;;;;;4.78;3.30;;;;;;;;;;5021253;28;20029;-39
2023/09/23 01:57:12;;;;;;;3.63;2.65;;;;;;;;;;5016511;28;20056;-39
2023/09/23 01:59:40;;;;;;;5.45;3.17;;;;;;;;;;5019814;28;20037;-39
2023/09/23 02:02:06;;;;;;;6.78;3.47;;;;;;;;;;5022717;28;20097;-38
2023/09/23 02:04:31;;;;;;;5.18;3.30;;;;;;;;;;5020702;28;20021;-38
2023/09/23 02:06:56;;;;;;;7.28;3.45;;;;;;;;;;5021894;28;20076;-39
2023/09/23 02:09:22;;;;;;;6.37;3.33;;;;;;;;;;5017953;28;20034;-39
2023/09/23 02:11:48;;;;;;;4.37;2.17;;;;;;;;;;5019628;28;20108;-39
2023/09/23 02:14:13;;;;;;;8.57;3.88;;;;;;;;;;5022695;28;20095;-39
2023/09/23 02:16:40;;;;;;;6.22;3.47;;;;;;;;;;5015010;28;20037;-39
2023/09/23 02:19:05;;;;;;;5.38;3.80;;;;;;;;;;5024771;28;20049;-39
2023/09/23 02:21:30;;;;;;;6.97;4.03;;;;;;;;;;5021614;28;20073;-39
2023/09/23 02:23:58;;;;;;;5.85;3.72;;;;;;;;;;5019650;28;20033;-39
2023/09/23 02:26:24;;;;;;;4.97;3.70;;;;;;;;;;5021332;28;20071;-39
2023/09/23 02:28:49;;;;;;;8.55;3.50;;;;;;;;;;5017046;28;20029;-39
2023/09/23 02:31:17;;;;;;;7.57;3.50;;;;;;;;;;5021469;28;20484;-39
2023/09/23 02:33:43;;;;;;;5.78;4.07;;;;;;;;;;5021542;28;20087;-39
2023/09/23 02:36:08;;;;;;;7.40;4.13;;;;;;;;;;5020560;28;20054;-39
2023/09/23 02:38:34;;;;;;;5.55;3.00;;;;;;;;;;5024141;28;20021;-38
2023/09/23 02:41:00;;;;;;;9.20;3.80;;;;;;;;;;5016622;28;20120;-39
2023/09/23 02:43:25;;;;;;;5.75;4.22;;;;;;;;;;5017789;28;21373;-39
2023/09/23 02:45:56;;;;;;;8.15;3.50;;;;;;;;;;5022875;28;20492;-39
2023/09/23 02:48:21;;;;;;;6.88;3.28;;;;;;;;;;5023614;28;20060;-39
2023/09/23 02:50:47;;;;;;;9.35;3.58;;;;;;;;;;5023966;28;20053;-39
2023/09/23 02:53:12;;;;;;;5.50;3.60;;;;;;;;;;5024327;28;20025;-39
2023/09/23 02:55:41;;;;;;;5.67;3.63;;;;;;;;;;5029219;28;20036;-38
2023/09/23 02:58:07;;;;;;;4.70;3.67;;;;;;;;;;5023935;28;20276;-39
2023/09/23 03:00:34;;;;;;;5.82;3.55;;;;;;;;;;5017878;28;20029;-39
2023/09/23 03:03:03;;;;;;;5.32;3.40;;;;;;;;;;5015294;28;31653;-39
2023/09/23 03:05:29;;;;;;;6.70;4.03;;;;;;;;;;5025337;28;20029;-39
2023/09/23 03:07:57;;;;;;;6.13;3.53;;;;;;;;;;5014150;28;20030;-38
2023/09/23 03:10:31;;;;;;;7.07;3.38;;;;;;;;;;5024161;28;20116;-39
2023/09/23 03:13:03;;;;;;;14.52;3.78;;;;;;;;;;5021736;28;20048;-38
2023/09/23 03:15:44;;;;;;;8.75;3.35;;;;;;;;;;5021714;28;20022;-39
2023/09/23 03:18:09;;;;;;;4.75;2.90;;;;;;;;;;5022390;28;20828;-38
2023/09/23 03:20:36;;;;;;;7.35;3.90;;;;;;;;;;5023086;28;20030;-39
2023/09/23 03:23:03;;;;;;;5.22;3.25;;;;;;;;;;5026487;28;20396;-39
2023/09/23 03:25:28;;;;;;;7.85;3.75;;;;;;;;;;5019263;28;20103;-39
2023/09/23 03:27:55;;;;;;;3.53;2.30;;;;;;;;;;5022507;28;20422;-39
2023/09/23 03:30:20;;;;;;;7.97;3.38;;;;;;;;;;5018918;28;20306;-39
2023/09/23 03:32:46;;;;;;;5.97;3.30;;;;;;;;;;5015973;28;20435;-39
2023/09/23 03:35:20;;;;;;;6.07;3.50;;;;;;;;;;5020757;28;20037;-39
2023/09/23 03:37:51;;;;;;;8.68;3.75;;;;;;;;;;5020235;28;20148;-39
2023/09/23 03:40:20;;;;;;;8.07;3.38;;;;;;;;;;5019334;28;20092;-39
2023/09/23 03:42:47;;;;;;;6.43;3.47;;;;;;;;;;5009276;28;20558;-39
2023/09/23 03:45:12;;;;;;;10.40;5.35;;;;;;;;;;5015996;28;20095;-39
2023/09/23 03:47:37;;;;;;;14.33;7.93;;;;;;;;;;5020995;28;20466;-39
2023/09/23 03:50:03;;;;;;;9.13;3.87;;;;;;;;;;5023019;28;20277;-39
2023/09/23 03:52:29;;;;;;;7.35;3.90;;;;;;;;;;5018798;28;20034;-39
2023/09/23 03:54:54;;;;;;;8.10;3.97;;;;;;;;;;5024845;28;20017;-39
2023/09/23 03:57:20;;;;;;;5.38;3.80;;;;;;;;;;5023734;28;20061;-39
2023/09/23 03:59:46;;;;;;;5.35;3.50;;;;;;;;;;5017552;28;20028;-39
2023/09/23 04:02:11;;;;;;;6.25;3.47;;;;;;;;;;5021120;28;20057;-39
2023/09/23 04:04:37;;;;;;;5.03;3.17;;;;;;;;;;5013292;28;20022;-38
2023/09/23 04:07:05;;;;;;;8.13;3.92;;;;;;;;;;5018238;28;20021;-39
2023/09/23 04:09:32;;;;;;;7.53;3.67;;;;;;;;;;5017960;28;20059;-39
2023/09/23 04:11:57;;;;;;;5.15;3.40;;;;;;;;;;5020013;28;20022;-39
2023/09/23 04:14:24;;;;;;;9.67;3.40;;;;;;;;;;5022434;28;20392;-38
2023/09/23 04:16:49;;;;;;;5.15;2.90;;;;;;;;;;5018843;28;20026;-38
2023/09/23 04:19:14;;;;;;;5.78;3.30;;;;;;;;;;5022987;28;20033;-39
2023/09/23 04:21:39;;;;;;;5.30;2.90;;;;;;;;;;5014890;28;20593;-38
2023/09/23 04:24:06;;;;;;;5.87;3.17;;;;;;;;;;5021302;28;20269;-39
2023/09/23 04:26:32;;;;;;;5.20;3.13;;;;;;;;;;5024026;28;20122;-39
2023/09/23 04:28:58;;;;;;;7.60;3.40;;;;;;;;;;5020422;28;20139;-39
2023/09/23 04:31:24;;;;;;;6.47;3.40;;;;;;;;;;5016610;28;20280;-39
2023/09/23 04:33:51;;;;;;;5.50;3.08;;;;;;;;;;5026421;28;20013;-39
2023/09/23 04:36:16;;;;;;;5.80;2.75;;;;;;;;;;5019712;28;20044;-38
2023/09/23 04:38:43;;;;;;;8.90;4.00;;;;;;;;;;5015711;28;20021;-39
2023/09/23 04:41:09;;;;;;;5.82;2.63;;;;;;;;;;5020596;28;20384;-38
2023/09/23 04:43:35;;;;;;;10.10;3.58;;;;;;;;;;5022246;28;20030;-39
2023/09/23 04:46:00;;;;;;;3.92;2.70;;;;;;;;;;5023792;28;20377;-38
2023/09/23 04:48:25;;;;;;;5.68;2.97;;;;;;;;;;5022356;28;20024;-39
2023/09/23 04:50:55;;;;;;;5.95;2.67;;;;;;;;;;5026596;28;20036;-39
2023/09/23 04:53:20;;;;;;;7.00;2.90;;;;;;;;;;5020379;28;20488;-39
2023/09/23 04:55:46;;;;;;;7.93;3.03;;;;;;;;;;5020953;28;20025;-38
2023/09/23 04:58:12;;;;;;;6.93;2.80;;;;;;;;;;5023156;28;20507;-39
2023/09/23 05:00:38;;;;;;;5.25;2.85;;;;;;;;;;5019911;28;20028;-38
2023/09/23 05:03:04;;;;;;;8.18;3.42;;;;;;;;;;5023929;28;20025;-39
2023/09/23 05:05:29;;;;;;;4.35;2.63;;;;;;;;;;5024579;28;20025;-39
2023/09/23 05:07:55;;;;;;;5.80;2.80;;;;;;;;;;5025399;28;20035;-39
2023/09/23 05:10:20;;;;;;;4.68;3.13;;;;;;;;;;5024915;28;20299;-38
2023/09/23 05:12:45;;;;;;;5.38;3.05;;;;;;;;;;5020296;28;20048;-39
2023/09/23 05:15:14;;;;;;;5.82;3.35;;;;;;;;;;5022641;28;20057;-39
2023/09/23 05:17:40;;;;;;;5.03;2.50;;;;;;;;;;5021912;28;20037;-38
2023/09/23 05:20:25;;;;;;;7.40;3.20;;;;;;;;;;5022715;28;20029;-39
2023/09/23 05:22:50;;;;;;;5.35;3.17;;;;;;;;;;5025233;28;20065;-39
2023/09/23 05:25:16;;;;;;;5.03;3.00;;;;;;;;;;5015530;28;20108;-38
2023/09/23 05:27:42;;;;;;;3.85;2.50;;;;;;;;;;5020633;28;20267;-39
2023/09/23 05:30:08;;;;;;;5.53;3.00;;;;;;;;;;5023336;28;20036;-39
2023/09/23 05:32:34;;;;;;;7.28;2.83;;;;;;;;;;5026657;28;20025;-39
2023/09/23 05:35:00;;;;;;;5.78;2.75;;;;;;;;;;5025903;28;20030;-39
2023/09/23 05:37:26;;;;;;;6.80;3.00;;;;;;;;;;5019562;28;20036;-39
2023/09/23 05:39:52;;;;;;;4.78;2.65;;;;;;;;;;5019133;28;20026;-39
2023/09/23 05:42:23;;;;;;;6.43;3.22;;;;;;;;;;5017164;28;20104;-39
2023/09/23 05:44:48;;;;;;;8.63;3.38;;;;;;;;;;5013186;28;20033;-39
2023/09/23 05:47:13;;;;;;;7.17;2.43;;;;;;;;;;5019309;28;20075;-38
2023/09/23 05:49:39;;;;;;;8.50;3.63;;;;;;;;;;5022839;28;20264;-39
2023/09/23 05:52:04;;;;;;;6.95;2.85;;;;;;;;;;5013401;28;20326;-38
2023/09/23 05:54:29;;;;;;;8.35;3.13;;;;;;;;;;5022777;28;20064;-38
2023/09/23 05:56:54;;;;;;;5.20;2.85;;;;;;;;;;5017249;28;20032;-39
2023/09/23 05:59:20;;;;;;;6.23;2.90;;;;;;;;;;5015025;28;20026;-39
2023/09/23 06:01:45;;;;;;;7.45;4.55;;;;;;;;;;5014010;28;20272;-38
2023/09/23 06:04:10;;;;;;;5.07;2.80;;;;;;;;;;5019181;28;20101;-39
2023/09/23 06:06:38;;;;;;;10.77;2.63;;;;;;;;;;5022015;28;20025;-39
2023/09/23 06:09:06;;;;;;;7.45;2.70;;;;;;;;;;5021240;28;20401;-39
2023/09/23 06:11:31;;;;;;;4.50;2.65;;;;;;;;;;5013633;28;20044;-39
2023/09/23 06:13:56;;;;;;;9.25;2.90;;;;;;;;;;4992759;28;20037;-39
2023/09/23 06:16:22;;;;;;;6.37;2.73;;;;;;;;;;5021197;28;20033;-39
2023/09/23 06:18:47;;;;;;;4.05;2.95;;;;;;;;;;5026866;28;20750;-39
2023/09/23 06:21:13;;;;;;;3.97;2.47;;;;;;;;;;5030682;28;20437;-39
2023/09/23 06:23:39;;;;;;;6.97;2.03;;;;;;;;;;5032206;28;20110;-38
2023/09/23 06:26:05;;;;;;;6.80;1.92;;;;;;;;;;5030231;28;20028;-39
2023/09/23 06:28:32;;;;;;;2.67;1.60;;;;;;;;;;5021194;28;20048;-38
2023/09/23 06:30:57;;;;;;;2.55;1.45;;;;;;;;;;5030237;28;20021;-39
2023/09/23 06:33:23;;;;;;;2.83;1.88;;;;;;;;;;5027529;28;20036;-39
2023/09/23 06:35:49;;;;;;;5.18;1.77;;;;;;;;;;5031266;28;20145;-39
2023/09/23 06:38:14;;;;;;;3.45;1.73;;;;;;;;;;5030603;28;20099;-38
2023/09/23 06:40:40;;;;;;;8.13;2.40;;;;;;;;;;5030722;28;20101;-39
2023/09/23 06:43:05;;;;;;;5.27;1.90;;;;;;;;;;5016452;28;20287;-38
2023/09/23 06:45:30;;;;;;;4.10;2.05;;;;;;;;;;5021043;28;20372;-38
2023/09/23 06:47:56;;;;;;;3.28;1.83;;;;;;;;;;5025263;28;20032;-39
2023/09/23 06:50:21;;;;;;;5.60;1.52;;;;;;;;;;5026348;28;20061;-38
2023/09/23 06:52:46;;;;;;;4.70;2.13;;;;;;;;;;5025351;28;20108;-38
2023/09/23 06:55:11;;;;;;;4.27;1.83;;;;;;;;;;5028441;28;20280;-39
2023/09/23 06:57:37;;;;;;;3.43;1.77;;;;;;;;;;5029088;28;20298;-38
2023/09/23 07:00:03;;;;;;;2.90;1.85;;;;;;;;;;5029188;28;20049;-39
2023/09/23 07:02:28;;;;;;;7.57;2.00;;;;;;;;;;5029598;28;20021;-38
2023/09/23 07:04:53;;;;;;;3.83;1.65;;;;;;;;;;5032940;28;20033;-39
2023/09/23 07:07:19;;;;;;;4.40;1.50;;;;;;;;;;5028828;28;20029;-39
2023/09/23 07:09:44;;;;;;;6.07;1.43;;;;;;;;;;5031988;28;20444;-38
2023/09/23 07:12:12;;;;;;;2.50;1.38;;;;;;;;;;5024538;28;20359;-39
2023/09/23 07:14:38;;;;;;;3.13;1.40;;;;;;;;;;5030219;28;20119;-38
2023/09/23 07:17:04;;;;;;;3.00;1.50;;;;;;;;;;5027109;28;20407;-39
2023/09/23 07:19:29;;;;;;;3.03;1.50;;;;;;;;;;5030229;28;20037;-39
2023/09/23 07:21:54;;;;;;;5.83;1.80;;;;;;;;;;5025339;28;20124;-39
2023/09/23 07:24:20;;;;;;;3.15;1.40;;;;;;;;;;5028852;28;20271;-38
2023/09/23 07:26:45;;;;;;;3.35;1.50;;;;;;;;;;5014450;28;20595;-39
2023/09/23 07:29:10;;;;;;;3.47;1.57;;;;;;;;;;5022942;28;20036;-38
2023/09/23 07:31:35;;;;;;;2.83;1.30;;;;;;;;;;5032155;28;20330;-38
2023/09/23 07:34:01;;;;;;;4.47;1.30;;;;;;;;;;5023422;28;21042;-39
2023/09/23 07:36:26;;;;;;;3.13;1.30;;;;;;;;;;5027731;28;20291;-39
2023/09/23 07:38:51;;;;;;;5.60;1.80;;;;;;;;;;5024750;28;20295;-39
2023/09/23 07:41:17;;;;;;;4.45;1.40;;;;;;;;;;5017645;28;20407;-39
2023/09/23 07:43:43;;;;;;;2.85;1.42;;;;;;;;;;5026198;28;20095;-39
2023/09/23 07:46:08;;;;;;;2.90;1.45;;;;;;;;;;5023847;28;20049;-39
2023/09/23 07:48:33;;;;;;;3.90;1.20;;;;;;;;;;5018371;28;20021;-39
2023/09/23 07:50:58;;;;;;;3.67;1.37;;;;;;;;;;5025876;28;20053;-39
2023/09/23 07:53:24;;;;;;;3.30;1.43;;;;;;;;;;5028991;28;20778;-39
2023/09/23 07:55:49;;;;;;;3.70;1.55;;;;;;;;;;5030152;28;20305;-39
2023/09/23 07:58:15;;;;;;;2.03;0.90;;;;;;;;;;5026578;28;20115;-38
2023/09/23 08:00:40;;;;;;;4.72;1.40;;;;;;;;;;5027765;28;20060;-38
2023/09/23 08:03:06;;;;;;;5.25;1.33;;;;;;;;;;5024092;28;20025;-39
2023/09/23 08:05:32;;;;;;;3.05;1.15;;;;;;;;;;5028669;28;20075;-39
2023/09/23 08:07:57;;;;;;;5.63;1.30;;;;;;;;;;5024866;28;20123;-39
2023/09/23 08:10:23;;;;;;;6.20;1.35;;;;;;;;;;5031919;28;20072;-38
2023/09/23 08:12:48;;;;;;;2.97;1.25;;;;;;;;;;5026463;28;20033;-38
2023/09/23 08:15:14;;;;;;;3.43;1.10;;;;;;;;;;5024518;28;20498;-39
2023/09/23 08:17:39;;;;;;;3.92;1.13;;;;;;;;;;5028686;28;20332;-39
2023/09/23 08:20:19;;;;;;;1.83;0.90;;;;;;;;;;5031696;28;20025;-39
2023/09/23 08:22:45;;;;;;;3.53;1.77;;;;;;;;;;5031448;28;20025;-39
2023/09/23 08:25:11;;;;;;;3.03;1.30;;;;;;;;;;5031467;28;20030;-39
2023/09/23 08:27:37;;;;;;;4.88;1.30;;;;;;;;;;5030947;28;20033;-38
2023/09/23 08:30:05;;;;;;;2.45;1.10;;;;;;;;;;5030764;28;20030;-38
2023/09/23 08:32:30;;;;;;;2.92;1.25;;;;;;;;;;5033479;28;20024;-38
2023/09/23 08:34:55;;;;;;;1.95;1.05;;;;;;;;;;5029559;28;20040;-39
2023/09/23 08:37:21;;;;;;;5.60;1.30;;;;;;;;;;5029867;28;20040;-39
2023/09/23 08:39:46;;;;;;;2.53;1.17;;;;;;;;;;5032341;28;20025;-39
2023/09/23 08:42:11;;;;;;;6.57;1.30;;;;;;;;;;5021826;28;20029;-39
2023/09/23 08:44:38;;;;;;;3.50;1.70;;;;;;;;;;5031737;28;20312;-38
2023/09/23 08:47:04;;;;;;;2.90;1.52;;;;;;;;;;5028260;28;20492;-38
2023/09/23 08:49:30;;;;;;;2.17;1.33;;;;;;;;;;5029955;28;20034;-38
2023/09/23 08:51:55;;;;;;;5.57;1.20;;;;;;;;;;5028497;28;20391;-38
2023/09/23 08:54:25;;;;;;;3.65;1.98;;;;;;;;;;5030554;28;20043;-38
2023/09/23 08:56:52;;;;;;;3.33;1.63;;;;;;;;;;5031572;28;20017;-38
2023/09/23 08:59:17;;;;;;;3.67;1.77;;;;;;;;;;5025026;28;20017;-38
2023/09/23 09:01:44;;;;;;;2.17;1.45;;;;;;;;;;5028975;28;20474;-39
2023/09/23 09:04:11;;;;;;;3.78;1.30;;;;;;;;;;5029969;28;20034;-39
2023/09/23 09:06:45;;;;;;;3.53;1.50;;;;;;;;;;5029728;28;20095;-38
2023/09/23 09:09:11;;;;;;;3.60;1.23;;;;;;;;;;5018448;28;20109;-38
2023/09/23 09:11:36;;;;;;;3.72;1.42;;;;;;;;;;5025556;28;20120;-39
2023/09/23 09:14:02;;;;;;;4.10;1.43;;;;;;;;;;5031345;28;20075;-38
2023/09/23 09:16:28;;;;;;;4.38;1.38;;;;;;;;;;5026622;28;20381;-38
2023/09/23 09:18:53;;;;;;;2.25;1.10;;;;;;;;;;5030618;28;20537;-37
2023/09/23 09:21:19;;;;;;;3.70;1.08;;;;;;;;;;5029843;28;20032;-38
2023/09/23 09:23:44;;;;;;;3.28;1.10;;;;;;;;;;5022585;28;20033;-39
2023/09/23 09:26:09;;;;;;;3.10;1.67;;;;;;;;;;5022544;28;20506;-39
2023/09/23 09:28:35;;;;;;;1.98;0.88;;;;;;;;;;5032750;28;20278;-39
2023/09/23 09:31:01;;;;;;;4.82;0.80;;;;;;;;;;5009935;28;20036;-38
2023/09/23 09:33:27;;;;;;;2.25;1.10;;;;;;;;;;5027102;28;20094;-38
2023/09/23 09:35:56;;;;;;;2.13;1.15;;;;;;;;;;5028250;28;20159;-38
2023/09/23 09:38:22;;;;;;;3.40;1.40;;;;;;;;;;5021624;28;20029;-39
2023/09/23 09:40:49;;;;;;;2.03;1.20;;;;;;;;;;5029990;28;20029;-38
2023/09/23 09:43:15;;;;;;;2.42;1.08;;;;;;;;;;5019968;28;20108;-38
2023/09/23 09:45:42;;;;;;;3.60;1.30;;;;;;;;;;5021167;28;20052;-38
2023/09/23 09:48:08;;;;;;;2.65;1.30;;;;;;;;;;5029590;28;20020;-38
2023/09/23 09:50:37;;;;;;;3.13;1.08;;;;;;;;;;5031506;28;20489;-38
2023/09/23 09:53:05;;;;;;;4.13;1.25;;;;;;;;;;5032541;28;20029;-39
2023/09/23 09:55:31;;;;;;;4.35;1.20;;;;;;;;;;5026894;28;20025;-39
2023/09/23 09:57:56;;;;;;;2.38;1.00;;;;;;;;;;5029172;28;20087;-38
2023/09/23 10:00:35;;;;;;;3.22;1.00;;;;;;;;;;5027774;28;20587;-38
2023/09/23 10:03:08;;;;;;;6.65;1.10;;;;;;;;;;5027379;28;20117;-39
2023/09/23 10:05:35;;;;;;;3.03;1.13;;;;;;;;;;5029741;28;20079;-38
2023/09/23 10:08:09;;;;;;;5.15;1.17;;;;;;;;;;5024288;28;20024;-38
2023/09/23 10:10:35;;;;;;;5.15;1.33;;;;;;;;;;5034471;28;20017;-39
2023/09/23 10:13:07;;;;;;;1.65;1.13;;;;;;;;;;5030628;28;20029;-39
2023/09/23 10:15:35;;;;;;;3.15;1.38;;;;;;;;;;5033333;28;20033;-38
2023/09/23 10:18:02;;;;;;;2.60;1.17;;;;;;;;;;5025969;28;20059;-38
2023/09/23 10:20:33;;;;;;;2.63;0.90;;;;;;;;;;5032194;28;20028;-39
2023/09/23 10:22:59;;;;;;;3.25;1.17;;;;;;;;;;5032232;28;20071;-39
2023/09/23 10:25:35;;;;;;;3.13;1.33;;;;;;;;;;5031743;28;20384;-39
2023/09/23 10:28:03;;;;;;;4.38;1.80;;;;;;;;;;5032523;28;20017;-39
2023/09/23 10:30:29;;;;;;;3.30;1.65;;;;;;;;;;5029328;28;20033;-38
2023/09/23 10:32:54;;;;;;;4.43;1.70;;;;;;;;;;5036259;28;20083;-38
2023/09/23 10:35:23;;;;;;;6.15;2.65;;;;;;;;;;5032050;28;20333;-38
2023/09/23 10:37:48;;;;;;;2.72;1.55;;;;;;;;;;5033844;28;20142;-38
2023/09/23 10:40:14;;;;;;;3.60;1.70;;;;;;;;;;5032646;28;20111;-40
2023/09/23 10:42:44;;;;;;;4.63;1.48;;;;;;;;;;5025766;28;20039;-38
2023/09/23 10:45:11;;;;;;;2.50;1.40;;;;;;;;;;5029226;28;20053;-38
2023/09/23 10:47:37;;;;;;;4.43;2.10;;;;;;;;;;5031648;28;20021;-39
2023/09/23 10:50:06;;;;;;;5.20;1.25;;;;;;;;;;5030108;28;20024;-38
2023/09/23 10:52:32;;;;;;;2.08;0.98;;;;;;;;;;5033461;28;20026;-38
2023/09/23 10:54:59;;;;;;;4.20;1.25;;;;;;;;;;5029147;28;20442;-38
2023/09/23 10:57:25;;;;;;;3.40;1.48;;;;;;;;;;5032134;28;20053;-39
2023/09/23 10:59:51;;;;;;;3.75;1.40;;;;;;;;;;5031997;28;20026;-39
2023/09/23 11:02:16;;;;;;;1.77;1.17;;;;;;;;;;5032438;28;20092;-38
2023/09/23 11:04:46;;;;;;;2.43;1.20;;;;;;;;;;5020109;28;20030;-37
2023/09/23 11:07:11;;;;;;;5.45;2.97;;;;;;;;;;5025321;28;20268;-38
2023/09/23 11:09:37;;;;;;;3.15;1.52;;;;;;;;;;5031964;28;20438;-39
2023/09/23 11:12:06;;;;;;;6.87;4.37;;;;;;;;;;5019442;28;20042;-38
2023/09/23 11:14:32;;;;;;;2.85;1.50;;;;;;;;;;5029306;28;20291;-39
2023/09/23 11:16:57;;;;;;;3.67;1.27;;;;;;;;;;5027682;28;20026;-39
2023/09/23 11:19:22;;;;;;;4.00;1.55;;;;;;;;;;5031217;28;20016;-38
2023/09/23 11:21:48;;;;;;;3.27;0.90;;;;;;;;;;5027544;28;20030;-39
2023/09/23 11:24:13;;;;;;;3.58;1.20;;;;;;;;;;5029862;28;20160;-37
2023/09/23 11:26:39;;;;;;;2.28;1.10;;;;;;;;;;5024931;28;20103;-37
2023/09/23 11:29:05;;;;;;;1.58;1.08;;;;;;;;;;5043045;28;20062;-38
2023/09/23 11:31:31;;;;;;;1.85;1.02;;;;;;;;;;5027481;28;20024;-38
2023/09/23 11:33:56;;;;;;;2.38;1.13;;;;;;;;;;5023781;28;20029;-37
2023/09/23 11:36:21;;;;;;;4.88;1.73;;;;;;;;;;5027479;28;20056;-38
2023/09/23 11:38:47;;;;;;;2.10;1.30;;;;;;;;;;5023623;28;20441;-38
2023/09/23 11:41:12;;;;;;;2.25;1.40;;;;;;;;;;5022985;28;20045;-37
2023/09/23 11:43:38;;;;;;;3.53;1.40;;;;;;;;;;5019785;28;20029;-38
2023/09/23 11:46:03;;;;;;;5.03;1.80;;;;;;;;;;5029931;28;20021;-38
2023/09/23 11:48:28;;;;;;;4.90;2.37;;;;;;;;;;5032003;28;20134;-38
2023/09/23 11:50:53;;;;;;;3.33;1.23;;;;;;;;;;5030576;28;20295;-37
2023/09/23 11:53:19;;;;;;;2.57;1.53;;;;;;;;;;5029061;28;20280;-38
2023/09/23 11:55:45;;;;;;;4.07;1.63;;;;;;;;;;5030860;28;20315;-39
2023/09/23 11:58:10;;;;;;;2.45;1.35;;;;;;;;;;5034278;28;20045;-39
2023/09/23 12:00:36;;;;;;;2.67;1.48;;;;;;;;;;5029748;28;20038;-39
2023/09/23 12:03:02;;;;;;;2.95;1.20;;;;;;;;;;5030536;28;20095;-39
2023/09/23 12:05:30;;;;;;;3.47;1.20;;;;;;;;;;5031775;28;20029;-38
2023/09/23 12:07:58;;;;;;;3.55;1.45;;;;;;;;;;5002011;28;20075;-38
2023/09/23 12:10:24;;;;;;;3.10;1.80;;;;;;;;;;5026416;28;20033;-40
2023/09/23 12:12:50;;;;;;;3.47;1.65;;;;;;;;;;5031049;28;20027;-38
2023/09/23 12:15:15;;;;;;;3.67;1.30;;;;;;;;;;5031028;28;20082;-38
2023/09/23 12:17:40;;;;;;;3.05;1.30;;;;;;;;;;5028520;28;20055;-38
2023/09/23 12:20:11;;;;;;;5.15;1.88;;;;;;;;;;5030968;28;20029;-37
2023/09/23 12:22:41;;;;;;;3.67;1.63;;;;;;;;;;5032448;28;20018;-38
2023/09/23 12:25:07;;;;;;;3.67;1.25;;;;;;;;;;5029663;28;20032;-38
2023/09/23 12:27:33;;;;;;;1.35;1.00;;;;;;;;;;5030308;28;20033;-38
2023/09/23 12:29:59;;;;;;;2.47;1.40;;;;;;;;;;5031439;28;20029;-37
2023/09/23 12:32:24;;;;;;;10.13;1.77;;;;;;;;;;5028491;28;20028;-38
2023/09/23 12:34:50;;;;;;;3.63;1.23;;;;;;;;;;5028009;28;20480;-38
2023/09/23 12:37:15;;;;;;;6.38;1.50;;;;;;;;;;5030573;28;20375;-38
2023/09/23 12:39:40;;;;;;;3.03;1.30;;;;;;;;;;5031919;28;20191;-38
2023/09/23 12:42:06;;;;;;;6.97;1.63;;;;;;;;;;5022084;28;20158;-39
2023/09/23 12:44:31;;;;;;;4.50;1.60;;;;;;;;;;5026299;28;20702;-39
2023/09/23 12:46:56;;;;;;;5.35;1.35;;;;;;;;;;5032897;28;20033;-39
2023/09/23 12:49:22;;;;;;;2.78;1.40;;;;;;;;;;5023089;28;20040;-39
2023/09/23 12:51:47;;;;;;;3.00;1.23;;;;;;;;;;5028048;28;20029;-39
2023/09/23 12:54:12;;;;;;;6.45;1.35;;;;;;;;;;5026176;28;20103;-38
2023/09/23 12:56:38;;;;;;;1.95;1.20;;;;;;;;;;5032786;28;20036;-38
2023/09/23 12:59:06;;;;;;;2.78;1.38;;;;;;;;;;5031100;28;20064;-38
2023/09/23 13:01:33;;;;;;;3.97;1.30;;;;;;;;;;5027096;28;20506;-38
2023/09/23 13:03:58;;;;;;;1.58;1.13;;;;;;;;;;5028983;28;20731;-38
2023/09/23 13:06:23;;;;;;;2.70;1.50;;;;;;;;;;5023954;28;20025;-39
2023/09/23 13:08:49;;;;;;;5.03;1.17;;;;;;;;;;5024905;28;20468;-39
2023/09/23 13:11:15;;;;;;;4.00;1.10;;;;;;;;;;5030175;28;20063;-39
2023/09/23 13:13:40;;;;;;;3.25;1.45;;;;;;;;;;5033312;28;20041;-39
2023/09/23 13:16:08;;;;;;;3.90;1.40;;;;;;;;;;5029598;28;20021;-39
2023/09/23 13:18:34;;;;;;;2.92;1.13;;;;;;;;;;5030329;28;20025;-39
2023/09/23 13:21:00;;;;;;;2.60;1.35;;;;;;;;;;5032631;28;20025;-39
2023/09/23 13:23:25;;;;;;;2.65;1.17;;;;;;;;;;5027402;28;20037;-39
2023/09/23 13:25:50;;;;;;;1.50;0.80;;;;;;;;;;5031422;28;20052;-39
2023/09/23 13:28:16;;;;;;;1.40;0.73;;;;;;;;;;5027246;28;20294;-38
2023/09/23 13:30:42;;;;;;;2.17;0.90;;;;;;;;;;5030243;28;20024;-40
2023/09/23 13:33:08;;;;;;;1.83;0.90;;;;;;;;;;5030647;28;20480;-39
2023/09/23 13:35:34;;;;;;;3.70;1.27;;;;;;;;;;5028880;28;20033;-39
2023/09/23 13:37:59;;;;;;;6.10;2.08;;;;;;;;;;5026933;28;20040;-38
2023/09/23 13:40:24;;;;;;;3.67;1.70;;;;;;;;;;5032143;28;20029;-38
2023/09/23 13:42:50;;;;;;;1.50;0.70;;;;;;;;;;5025744;28;20280;-38
2023/09/23 13:45:15;;;;;;;1.30;0.70;;;;;;;;;;5025750;28;20299;-39
2023/09/23 13:47:42;;;;;;;2.17;0.85;;;;;;;;;;5029235;28;20275;-38
2023/09/23 13:50:09;;;;;;;2.22;0.90;;;;;;;;;;5029562;28;20029;-41
2023/09/23 13:52:34;;;;;;;1.95;0.90;;;;;;;;;;5027606;28;20025;-39
2023/09/23 13:55:02;;;;;;;3.22;0.85;;;;;;;;;;5028711;28;20089;-39
2023/09/23 13:57:28;;;;;;;2.33;1.17;;;;;;;;;;5017996;28;20048;-39
2023/09/23 13:59:53;;;;;;;2.78;0.82;;;;;;;;;;5013701;28;20571;-38
2023/09/23 14:02:18;;;;;;;1.70;0.87;;;;;;;;;;5015240;28;20033;-38
2023/09/23 14:04:44;;;;;;;2.93;0.50;;;;;;;;;;5017381;28;20048;-38
2023/09/23 14:07:09;;;;;;;2.63;0.85;;;;;;;;;;5018492;28;20377;-38
2023/09/23 14:09:34;;;;;;;1.90;0.60;;;;;;;;;;5023930;28;20492;-38
2023/09/23 14:12:00;;;;;;;2.27;0.60;;;;;;;;;;5021390;28;20052;-39
2023/09/23 14:14:25;;;;;;;3.15;0.70;;;;;;;;;;5019177;28;20013;-39
2023/09/23 14:16:50;;;;;;;1.90;0.97;;;;;;;;;;5021765;28;20031;-39
2023/09/23 14:19:15;;;;;;;1.40;0.80;;;;;;;;;;5013930;28;20077;-39
2023/09/23 14:21:41;;;;;;;2.17;0.83;;;;;;;;;;5017843;28;20559;-38
2023/09/23 14:24:06;;;;;;;2.78;0.73;;;;;;;;;;5017071;28;20053;-38
2023/09/23 14:26:32;;;;;;;2.35;0.68;;;;;;;;;;5018690;28;20466;-37
2023/09/23 14:28:58;;;;;;;1.15;0.50;;;;;;;;;;5020471;28;20874;-38
2023/09/23 14:31:23;;;;;;;2.58;0.70;;;;;;;;;;5019028;28;20085;-37
2023/09/23 14:33:48;;;;;;;2.47;0.80;;;;;;;;;;5020277;28;20033;-38
2023/09/23 14:36:14;;;;;;;5.55;0.68;;;;;;;;;;5023244;28;20022;-39
2023/09/23 14:38:39;;;;;;;1.23;0.47;;;;;;;;;;5022748;28;20029;-39